createdAt,value
2023-12-19T00:00:30.464Z,5.66
2023-12-19T00:02:57.923Z,5.66
2023-12-19T00:05:24.734Z,5.69
2023-12-19T00:07:51.289Z,5.71
2023-12-19T00:10:17.874Z,5.67
2023-12-19T00:12:45.293Z,5.67
2023-12-19T00:15:12.203Z,5.65
2023-12-19T00:17:40.571Z,5.64
2023-12-19T00:20:07.924Z,5.64
2023-12-19T00:22:34.454Z,5.62
2023-12-19T00:25:01.021Z,5.62
2023-12-19T00:27:27.672Z,5.65
2023-12-19T00:29:54.327Z,5.65
2023-12-19T00:32:21.011Z,5.64
2023-12-19T00:34:47.615Z,5.63
2023-12-19T00:37:15.088Z,5.64
2023-12-19T00:39:41.761Z,5.67
2023-12-19T00:42:08.353Z,5.65
2023-12-19T00:44:38.269Z,5.66
2023-12-19T00:47:05.115Z,5.65
2023-12-19T00:49:31.671Z,5.67
2023-12-19T00:51:58.443Z,5.70
2023-12-19T00:54:25.097Z,5.71
2023-12-19T00:56:51.588Z,5.74
2023-12-19T00:59:18.201Z,5.72
2023-12-19T01:01:44.967Z,5.75
2023-12-19T01:04:12.351Z,5.74
2023-12-19T01:06:39.305Z,5.76
2023-12-19T01:09:06.713Z,5.76
2023-12-19T01:11:33.437Z,5.76
2023-12-19T01:13:59.967Z,5.75
2023-12-19T01:16:26.511Z,5.75
2023-12-19T01:18:53.038Z,5.76
2023-12-19T01:21:19.565Z,5.76
2023-12-19T01:23:46.251Z,5.75
2023-12-19T01:26:19.784Z,5.77
2023-12-19T01:28:50.600Z,5.78
2023-12-19T01:31:17.482Z,5.78
2023-12-19T01:33:44.246Z,5.80
2023-12-19T01:36:11.486Z,5.81
2023-12-19T01:38:38.024Z,5.81
2023-12-19T01:41:04.668Z,5.83
2023-12-19T01:43:32.229Z,5.81
2023-12-19T01:45:58.804Z,5.82
2023-12-19T01:48:27.440Z,5.85
2023-12-19T01:50:54.278Z,5.82
2023-12-19T01:53:24.927Z,5.83
2023-12-19T01:55:55.123Z,5.79
2023-12-19T01:58:22.327Z,5.78
2023-12-19T02:00:50.691Z,5.78
2023-12-19T02:03:17.470Z,5.78
2023-12-19T02:05:45.257Z,5.76
2023-12-19T02:08:11.873Z,5.76
2023-12-19T02:10:38.511Z,5.76
2023-12-19T02:13:05.464Z,5.77
2023-12-19T02:15:32.259Z,5.76
2023-12-19T02:17:58.942Z,5.77
2023-12-19T02:20:25.566Z,5.76
2023-12-19T02:22:53.438Z,5.75
2023-12-19T02:25:21.583Z,5.76
2023-12-19T02:27:48.625Z,5.77
2023-12-19T02:30:15.396Z,5.77
2023-12-19T02:32:44.104Z,5.77
2023-12-19T02:35:10.865Z,5.77
2023-12-19T02:37:37.425Z,5.77
2023-12-19T02:40:04.414Z,5.79
2023-12-19T02:42:31.126Z,5.78
2023-12-19T02:44:57.697Z,5.81
2023-12-19T02:47:24.283Z,5.80
2023-12-19T02:49:50.931Z,5.82
2023-12-19T02:52:17.836Z,5.83
2023-12-19T02:54:44.393Z,5.84
2023-12-19T02:57:10.991Z,5.85
2023-12-19T02:59:37.481Z,5.86
2023-12-19T03:02:04.037Z,5.89
2023-12-19T03:04:30.518Z,5.89
2023-12-19T03:06:57.192Z,5.91
2023-12-19T03:09:23.933Z,5.92
2023-12-19T03:12:07.082Z,5.93
2023-12-19T03:14:35.607Z,5.95
2023-12-19T03:17:04.218Z,5.96
2023-12-19T03:19:31.186Z,5.98
2023-12-19T03:21:57.740Z,5.98
2023-12-19T03:24:24.782Z,6.00
2023-12-19T03:26:51.479Z,6.00
2023-12-19T03:29:17.939Z,6.02
2023-12-19T03:31:44.488Z,6.04
2023-12-19T03:34:11.106Z,6.04
2023-12-19T03:36:37.599Z,6.07
2023-12-19T03:39:04.523Z,6.07
2023-12-19T03:41:31.020Z,6.10
2023-12-19T03:43:57.446Z,6.10
2023-12-19T03:46:23.906Z,6.12
2023-12-19T03:48:50.504Z,6.14
2023-12-19T03:51:17.129Z,6.15
2023-12-19T03:53:43.603Z,6.17
2023-12-19T03:56:10.044Z,6.15
2023-12-19T03:58:39.556Z,6.16
2023-12-19T04:01:06.198Z,6.17
2023-12-19T04:03:32.776Z,6.18
2023-12-19T04:05:59.867Z,6.20
2023-12-19T04:08:26.416Z,6.21
2023-12-19T04:10:52.833Z,6.21
2023-12-19T04:13:19.481Z,6.21
2023-12-19T04:15:46.086Z,6.23
2023-12-19T04:18:15.382Z,6.23
2023-12-19T04:20:42.318Z,6.23
2023-12-19T04:23:08.834Z,6.24
2023-12-19T04:25:35.435Z,6.24
2023-12-19T04:28:02.117Z,6.25
2023-12-19T04:30:28.778Z,6.24
2023-12-19T04:32:55.412Z,6.26
2023-12-19T04:35:21.870Z,6.25
2023-12-19T04:37:48.310Z,6.27
2023-12-19T04:40:15.019Z,6.29
2023-12-19T04:42:41.933Z,6.28
2023-12-19T04:45:09.698Z,6.31
2023-12-19T04:47:36.211Z,6.32
2023-12-19T04:50:04.545Z,6.35
2023-12-19T04:52:31.109Z,6.38
2023-12-19T04:54:57.913Z,6.40
2023-12-19T04:57:24.636Z,6.42
2023-12-19T04:59:51.233Z,6.43
2023-12-19T05:02:17.777Z,6.43
2023-12-19T05:04:45.200Z,6.44
2023-12-19T05:07:11.963Z,6.47
2023-12-19T05:09:38.639Z,6.48
2023-12-19T05:12:05.807Z,6.49
2023-12-19T05:14:33.059Z,6.49
2023-12-19T05:17:01.200Z,6.50
2023-12-19T05:19:27.883Z,6.50
2023-12-19T05:21:54.820Z,6.50
2023-12-19T05:24:21.595Z,6.49
2023-12-19T05:26:48.216Z,6.50
2023-12-19T05:29:14.765Z,6.50
2023-12-19T05:31:41.382Z,6.51
2023-12-19T05:34:07.957Z,6.51
2023-12-19T05:36:39.180Z,6.51
2023-12-19T05:39:07.659Z,6.52
2023-12-19T05:41:34.569Z,6.52
2023-12-19T05:44:02.354Z,6.54
2023-12-19T05:46:29.544Z,6.54
2023-12-19T05:48:56.541Z,6.55
2023-12-19T05:51:23.334Z,6.57
2023-12-19T05:53:50.492Z,6.58
2023-12-19T05:56:17.276Z,6.57
2023-12-19T05:58:46.042Z,6.61
2023-12-19T06:01:13.059Z,6.63
2023-12-19T06:03:39.810Z,6.64
2023-12-19T06:06:06.441Z,6.66
2023-12-19T06:08:33.015Z,6.70
2023-12-19T06:11:09.371Z,6.72
2023-12-19T06:13:36.250Z,6.74
2023-12-19T06:16:05.084Z,6.77
2023-12-19T06:18:33.534Z,6.78
2023-12-19T06:21:02.886Z,6.80
2023-12-19T06:23:29.438Z,6.80
2023-12-19T06:25:56.170Z,6.81
2023-12-19T06:28:31.201Z,6.82
2023-12-19T06:30:57.891Z,6.84
2023-12-19T06:33:24.524Z,6.85
2023-12-19T06:35:54.615Z,6.87
2023-12-19T06:38:21.087Z,6.88
2023-12-19T06:40:47.570Z,6.89
2023-12-19T06:43:14.162Z,6.89
2023-12-19T06:45:40.834Z,6.89
2023-12-19T06:48:07.595Z,6.89
2023-12-19T06:50:34.132Z,6.89
2023-12-19T06:53:00.995Z,6.90
2023-12-19T06:55:28.868Z,6.90
2023-12-19T06:57:56.614Z,6.89
2023-12-19T07:00:23.454Z,6.92
2023-12-19T07:02:50.388Z,6.92
2023-12-19T07:05:17.069Z,6.92
2023-12-19T07:07:43.830Z,6.92
2023-12-19T07:10:11.989Z,6.92
2023-12-19T07:12:40.174Z,6.94
2023-12-19T07:15:07.542Z,6.95
2023-12-19T07:17:34.119Z,6.96
2023-12-19T07:20:00.840Z,6.95
2023-12-19T07:22:27.542Z,6.97
2023-12-19T07:25:16.358Z,6.99
2023-12-19T07:27:44.614Z,6.98
2023-12-19T07:30:13.122Z,6.99
2023-12-19T07:32:43.360Z,7.01
2023-12-19T07:35:13.278Z,7.02
2023-12-19T07:37:39.856Z,7.04
2023-12-19T07:40:07.331Z,7.05
2023-12-19T07:42:33.965Z,7.08
2023-12-19T07:45:00.684Z,7.09
2023-12-19T07:47:29.863Z,7.10
2023-12-19T07:50:12.385Z,7.11
2023-12-19T07:52:40.087Z,7.11
2023-12-19T07:55:11.298Z,7.11
2023-12-19T07:57:39.706Z,7.11
2023-12-19T08:00:08.417Z,7.08
2023-12-19T08:02:36.680Z,7.08
2023-12-19T08:05:05.837Z,7.08
2023-12-19T08:07:32.637Z,7.08
2023-12-19T08:09:59.166Z,7.08
2023-12-19T08:12:25.803Z,7.07
2023-12-19T08:14:52.612Z,7.05
2023-12-19T08:17:20.126Z,7.06
2023-12-19T08:19:46.796Z,7.05
2023-12-19T08:26:15.708Z,7.05
2023-12-19T08:28:56.536Z,7.07
2023-12-19T08:34:36.788Z,7.05
2023-12-19T08:37:13.717Z,7.07
2023-12-19T08:39:54.847Z,7.08
2023-12-19T08:53:01.697Z,7.12
2023-12-19T09:02:49.265Z,7.14
2023-12-19T09:05:36.324Z,7.14
2023-12-19T09:11:52.291Z,7.14
2023-12-19T09:14:41.458Z,7.15
2023-12-19T09:17:09.846Z,7.14
2023-12-19T09:20:07.173Z,7.16
2023-12-19T09:23:12.743Z,7.16
2023-12-19T09:26:52.956Z,7.15
2023-12-19T09:30:13.657Z,7.14
2023-12-19T09:36:28.113Z,7.17
2023-12-19T09:39:15.611Z,7.18
2023-12-19T09:41:56.050Z,7.18
2023-12-19T09:44:48.979Z,7.19
2023-12-19T09:48:04.565Z,7.18
2023-12-19T09:50:34.721Z,7.21
2023-12-19T09:53:25.856Z,7.20
2023-12-19T09:56:10.818Z,7.21
2023-12-19T10:01:46.293Z,7.21
2023-12-19T10:04:31.305Z,7.23
2023-12-19T10:07:09.319Z,7.24
2023-12-19T10:10:00.645Z,7.23
2023-12-19T10:12:40.067Z,7.24
2023-12-19T10:15:21.659Z,7.25
2023-12-19T10:20:51.191Z,7.26
2023-12-19T10:23:26.629Z,7.26
2023-12-19T10:25:55.310Z,7.26
2023-12-19T10:28:32.359Z,7.27
2023-12-19T10:31:20.262Z,7.28
2023-12-19T10:33:53.804Z,7.29
2023-12-19T10:36:46.633Z,7.28
2023-12-19T10:39:18.464Z,7.29
2023-12-19T10:41:45.188Z,7.28
2023-12-19T10:44:13.778Z,7.28
2023-12-19T10:46:40.743Z,7.28
2023-12-19T10:49:07.631Z,7.27
2023-12-19T10:51:42.791Z,7.28
2023-12-19T10:54:16.718Z,7.29
2023-12-19T10:56:53.149Z,7.30
2023-12-19T10:59:46.782Z,7.32
2023-12-19T11:02:35.457Z,7.30
2023-12-19T11:05:28.670Z,7.29
2023-12-19T11:08:00.265Z,7.31
2023-12-19T11:10:40.860Z,7.29
2023-12-19T11:13:17.118Z,7.28
2023-12-19T11:17:17.719Z,7.28
2023-12-19T11:20:05.177Z,7.30
2023-12-19T11:22:43.855Z,7.30
2023-12-19T11:25:25.789Z,7.33
2023-12-19T11:28:02.690Z,7.32
2023-12-19T11:30:38.013Z,7.33
2023-12-19T11:33:06.191Z,7.32
2023-12-19T11:35:33.718Z,7.32
2023-12-19T11:38:26.108Z,7.32
2023-12-19T11:40:55.246Z,7.33
2023-12-19T11:43:30.996Z,7.35
2023-12-19T11:45:59.744Z,7.35
2023-12-19T11:48:52.041Z,7.37
2023-12-19T11:51:43.525Z,7.39
2023-12-19T11:54:14.456Z,7.39
2023-12-19T11:56:41.660Z,7.40
2023-12-19T11:59:09.871Z,7.41
2023-12-19T12:01:44.823Z,7.45
2023-12-19T12:04:12.448Z,7.44
2023-12-19T12:06:39.996Z,7.44
2023-12-19T12:09:07.162Z,7.45
2023-12-19T12:11:47.781Z,7.46
2023-12-19T12:14:15.120Z,7.46
2023-12-19T12:16:42.001Z,7.45
2023-12-19T12:19:16.337Z,7.48
2023-12-19T12:21:52.592Z,7.47
2023-12-19T12:24:32.567Z,7.48
2023-12-19T12:27:12.715Z,7.48
2023-12-19T12:29:39.858Z,7.49
2023-12-19T12:32:07.605Z,7.50
2023-12-19T12:34:34.661Z,7.49
2023-12-19T12:37:01.382Z,7.50
2023-12-19T12:39:28.444Z,7.53
2023-12-19T12:42:05.245Z,7.53
2023-12-19T12:44:35.556Z,7.53
2023-12-19T12:51:39.103Z,7.52
2023-12-19T12:54:33.628Z,7.53
2023-12-19T12:57:43.867Z,7.53
2023-12-19T13:00:26.431Z,7.51
2023-12-19T13:03:20.616Z,7.50
2023-12-19T13:05:56.040Z,7.51
2023-12-19T13:08:22.777Z,7.51
2023-12-19T13:10:49.552Z,7.50
2023-12-19T13:13:18.685Z,7.51
2023-12-19T13:15:45.464Z,7.54
2023-12-19T13:18:12.464Z,7.53
2023-12-19T13:20:39.022Z,7.53
2023-12-19T13:23:08.471Z,7.55
2023-12-19T13:25:38.191Z,7.54
2023-12-19T13:28:05.908Z,7.54
2023-12-19T13:30:32.578Z,7.57
2023-12-19T13:32:59.294Z,7.58
2023-12-19T13:35:25.957Z,7.56
2023-12-19T13:37:52.494Z,7.57
2023-12-19T13:40:19.157Z,7.56
2023-12-19T13:42:45.952Z,7.59
2023-12-19T13:45:12.529Z,7.58
2023-12-19T13:47:39.385Z,7.59
2023-12-19T13:50:06.567Z,7.60
2023-12-19T13:52:33.194Z,7.60
2023-12-19T13:54:59.933Z,7.60
2023-12-19T13:57:26.471Z,7.60
2023-12-19T13:59:53.868Z,7.61
2023-12-19T14:02:20.488Z,7.61
2023-12-19T14:04:47.547Z,7.61
2023-12-19T14:07:15.467Z,7.61
2023-12-19T14:09:42.741Z,7.61
2023-12-19T14:12:09.419Z,7.62
2023-12-19T14:14:36.099Z,7.61
2023-12-19T14:17:02.723Z,7.62
2023-12-19T14:19:29.323Z,7.59
2023-12-19T14:21:56.491Z,7.59
2023-12-19T14:24:23.039Z,7.60
2023-12-19T14:26:49.535Z,7.61
2023-12-19T14:29:16.093Z,7.58
2023-12-19T14:31:46.541Z,7.60
2023-12-19T14:34:13.464Z,7.60
2023-12-19T14:36:46.985Z,7.59
2023-12-19T14:39:14.509Z,7.63
2023-12-19T14:41:41.012Z,7.62
2023-12-19T14:44:08.223Z,7.63
2023-12-19T14:46:34.735Z,7.63
2023-12-19T14:49:03.657Z,7.63
2023-12-19T14:51:31.758Z,7.63
2023-12-19T14:53:59.049Z,7.63
2023-12-19T14:56:25.742Z,7.63
2023-12-19T14:58:52.698Z,7.66
2023-12-19T15:01:20.693Z,7.68
2023-12-19T15:03:49.489Z,7.65
2023-12-19T15:06:17.101Z,7.65
2023-12-19T15:08:43.770Z,7.65
2023-12-19T15:11:10.352Z,7.71
2023-12-19T15:13:36.842Z,7.71
2023-12-19T15:16:03.450Z,7.65
2023-12-19T15:18:34.320Z,7.70
2023-12-19T15:21:05.818Z,7.68
2023-12-19T15:23:33.033Z,7.66
2023-12-19T15:26:00.255Z,7.68
2023-12-19T15:28:26.838Z,7.66
2023-12-19T15:30:53.391Z,7.66
2023-12-19T15:33:20.070Z,7.66
2023-12-19T15:35:47.421Z,7.70
2023-12-19T15:38:14.842Z,7.67
2023-12-19T15:40:45.644Z,7.67
2023-12-19T15:43:22.415Z,7.68
2023-12-19T15:45:56.917Z,7.68
2023-12-19T15:48:23.675Z,7.66
2023-12-19T15:50:50.204Z,7.66
2023-12-19T15:53:16.734Z,7.64
2023-12-19T15:55:43.331Z,7.65
2023-12-19T15:58:09.999Z,7.65
2023-12-19T16:00:36.699Z,7.64
2023-12-19T16:03:03.520Z,7.65
2023-12-19T16:05:30.165Z,7.67
2023-12-19T16:07:56.708Z,7.66
2023-12-19T16:10:23.503Z,7.65
2023-12-19T16:12:51.298Z,7.65
2023-12-19T16:15:18.486Z,7.62
2023-12-19T16:17:45.010Z,7.64
2023-12-19T16:20:11.795Z,7.67
2023-12-19T16:22:40.240Z,7.66
2023-12-19T16:25:08.206Z,7.64
2023-12-19T16:27:36.479Z,7.66
2023-12-19T16:30:04.560Z,7.66
2023-12-19T16:32:31.067Z,7.66
2023-12-19T16:34:57.570Z,7.63
2023-12-19T16:37:24.489Z,7.61
2023-12-19T16:39:54.460Z,7.62
2023-12-19T16:42:24.249Z,7.61
2023-12-19T16:44:50.693Z,7.61
2023-12-19T16:47:17.163Z,7.59
2023-12-19T16:49:43.861Z,7.59
2023-12-19T16:52:10.849Z,7.59
2023-12-19T16:54:37.462Z,7.55
2023-12-19T16:57:04.491Z,7.57
2023-12-19T16:59:31.001Z,7.57
2023-12-19T17:01:57.717Z,7.57
2023-12-19T17:04:24.427Z,7.55
2023-12-19T17:06:54.314Z,7.56
2023-12-19T17:09:21.763Z,7.57
2023-12-19T17:11:48.283Z,7.56
2023-12-19T17:14:15.011Z,7.55
2023-12-19T17:16:41.584Z,7.57
2023-12-19T17:19:08.090Z,7.57
2023-12-19T17:21:34.689Z,7.58
2023-12-19T17:24:01.840Z,7.58
2023-12-19T17:26:28.381Z,7.59
2023-12-19T17:28:54.906Z,7.61
2023-12-19T17:31:21.598Z,7.62
2023-12-19T17:33:48.205Z,7.61
2023-12-19T17:36:20.538Z,7.62
2023-12-19T17:38:47.038Z,7.64
2023-12-19T17:41:13.488Z,7.65
2023-12-19T17:43:40.269Z,7.66
2023-12-19T17:46:06.753Z,7.66
2023-12-19T17:48:33.315Z,7.65
2023-12-19T17:51:00.317Z,7.66
2023-12-19T17:53:26.990Z,7.69
2023-12-19T17:55:54.202Z,7.71
2023-12-19T17:58:20.710Z,7.71
2023-12-19T18:00:49.461Z,7.72
2023-12-19T18:03:19.514Z,7.73
2023-12-19T18:05:49.751Z,7.73
2023-12-19T18:08:22.545Z,7.74
2023-12-19T18:10:50.285Z,7.73
2023-12-19T18:13:27.643Z,7.75
2023-12-19T18:16:15.957Z,7.76
2023-12-19T18:18:55.777Z,7.75
2023-12-19T18:21:25.221Z,7.76
2023-12-19T18:24:16.791Z,7.74
2023-12-19T18:26:49.967Z,7.76
2023-12-19T18:29:16.625Z,7.75
2023-12-19T18:31:48.242Z,7.74
2023-12-19T18:34:15.813Z,7.75
2023-12-19T18:36:45.497Z,7.73
2023-12-19T18:39:12.359Z,7.73
2023-12-19T18:41:55.266Z,7.73
2023-12-19T18:44:22.139Z,7.72
2023-12-19T18:46:51.293Z,7.71
2023-12-19T18:49:18.165Z,7.70
2023-12-19T18:51:44.979Z,7.71
2023-12-19T18:54:12.577Z,7.70
2023-12-19T18:56:39.158Z,7.69
2023-12-19T18:59:07.225Z,7.70
2023-12-19T19:01:35.711Z,7.69
2023-12-19T19:04:03.484Z,7.69
2023-12-19T19:06:33.414Z,7.67
2023-12-19T19:09:00.617Z,7.68
2023-12-19T19:11:28.354Z,7.66
2023-12-19T19:13:55.182Z,7.66
2023-12-19T19:16:22.039Z,7.66
2023-12-19T19:18:50.470Z,7.67
2023-12-19T19:21:17.269Z,7.66
2023-12-19T19:23:43.922Z,7.65
2023-12-19T19:26:11.725Z,7.64
2023-12-19T19:28:38.998Z,7.62
2023-12-19T19:31:05.756Z,7.61
2023-12-19T19:33:34.193Z,7.60
2023-12-19T19:36:01.433Z,7.58
2023-12-19T19:38:29.341Z,7.55
2023-12-19T19:40:59.469Z,7.50
2023-12-19T19:43:26.913Z,7.47
2023-12-19T19:45:54.841Z,7.47
2023-12-19T19:48:21.618Z,7.45
2023-12-19T19:50:48.484Z,7.44
2023-12-19T19:53:15.430Z,7.43
2023-12-19T19:55:42.185Z,7.45
2023-12-19T19:58:08.819Z,7.43
2023-12-19T20:00:35.645Z,7.41
2023-12-19T20:03:04.572Z,7.41
2023-12-19T20:05:31.694Z,7.41
2023-12-19T20:07:58.328Z,7.36
2023-12-19T20:10:25.124Z,7.35
2023-12-19T20:12:52.038Z,7.34
2023-12-19T20:15:18.563Z,7.31
2023-12-19T20:17:45.253Z,7.27
2023-12-19T20:20:12.201Z,7.24
2023-12-19T20:22:38.725Z,7.21
2023-12-19T20:25:05.777Z,7.16
2023-12-19T20:27:32.448Z,7.12
2023-12-19T20:29:59.666Z,7.08
2023-12-19T20:32:26.750Z,7.03
2023-12-19T20:34:53.319Z,7.01
2023-12-19T20:37:19.986Z,6.98
2023-12-19T20:39:46.600Z,6.95
2023-12-19T20:42:13.623Z,6.92
2023-12-19T20:44:40.240Z,6.89
2023-12-19T20:47:06.913Z,6.87
2023-12-19T20:49:33.853Z,6.85
2023-12-19T20:52:01.348Z,6.79
2023-12-19T20:54:27.917Z,6.76
2023-12-19T20:56:54.541Z,6.71
2023-12-19T20:59:21.674Z,6.67
2023-12-19T21:01:48.503Z,6.65
2023-12-19T21:04:15.285Z,6.61
2023-12-19T21:06:44.935Z,6.56
2023-12-19T21:09:12.855Z,6.54
2023-12-19T21:11:39.688Z,6.50
2023-12-19T21:14:07.567Z,6.49
2023-12-19T21:16:34.246Z,6.44
2023-12-19T21:19:00.826Z,6.40
2023-12-19T21:21:28.430Z,6.38
2023-12-19T21:23:55.074Z,6.33
2023-12-19T21:26:21.865Z,6.31
2023-12-19T21:28:48.479Z,6.27
2023-12-19T21:31:15.142Z,6.25
2023-12-19T21:33:42.970Z,6.21
2023-12-19T21:36:09.686Z,6.18
2023-12-19T21:38:36.206Z,6.16
2023-12-19T21:41:04.170Z,6.13
2023-12-19T21:43:33.073Z,6.11
2023-12-19T21:45:59.723Z,6.08
2023-12-19T21:48:26.270Z,6.04
2023-12-19T21:50:52.840Z,6.02
2023-12-19T21:53:19.394Z,6.01
2023-12-19T21:55:45.932Z,5.96
2023-12-19T21:58:12.500Z,5.92
2023-12-19T22:00:39.097Z,5.88
2023-12-19T22:03:05.723Z,5.83
2023-12-19T22:05:32.654Z,5.79
2023-12-19T22:07:59.266Z,5.76
2023-12-19T22:10:25.917Z,5.72
2023-12-19T22:12:52.532Z,5.65
2023-12-19T22:15:20.809Z,5.60
2023-12-19T22:17:47.775Z,5.60
2023-12-19T22:20:17.048Z,5.59
2023-12-19T22:22:44.568Z,5.53
2023-12-19T22:25:11.515Z,5.47
2023-12-19T22:27:38.050Z,5.42
2023-12-19T22:30:06.338Z,5.37
2023-12-19T22:32:33.530Z,5.31
2023-12-19T22:35:00.170Z,5.28
2023-12-19T22:37:26.719Z,5.24
2023-12-19T22:39:53.393Z,5.21
2023-12-19T22:42:19.915Z,5.20
2023-12-19T22:44:46.401Z,5.16
2023-12-19T22:47:13.039Z,5.14
2023-12-19T22:49:40.595Z,5.09
2023-12-19T22:52:07.322Z,5.05
2023-12-19T22:54:33.871Z,4.99
2023-12-19T22:57:00.326Z,4.95
2023-12-19T22:59:27.365Z,4.89
2023-12-19T23:01:55.010Z,4.85
2023-12-19T23:04:22.124Z,4.81
2023-12-19T23:06:49.132Z,4.79
2023-12-19T23:09:16.005Z,4.82
2023-12-19T23:11:42.996Z,4.85
2023-12-19T23:14:10.237Z,4.92
2023-12-19T23:16:37.218Z,4.97
2023-12-19T23:19:04.317Z,5.00
2023-12-19T23:21:30.976Z,4.97
2023-12-19T23:24:00.621Z,4.97
2023-12-19T23:26:27.165Z,5.01
2023-12-19T23:28:53.602Z,5.01
2023-12-19T23:31:25.029Z,4.99
2023-12-19T23:33:57.074Z,5.03
2023-12-19T23:36:23.591Z,5.06
2023-12-19T23:38:50.261Z,5.04
2023-12-19T23:41:18.056Z,5.04
2023-12-19T23:43:45.972Z,5.04
2023-12-19T23:46:22.972Z,5.04
2023-12-19T23:48:50.522Z,5.11
2023-12-19T23:51:18.296Z,5.07
2023-12-19T23:53:47.554Z,5.06
2023-12-19T23:56:14.604Z,5.01
2023-12-19T23:58:41.148Z,4.97
